sensor_id;sensor_type;location;lat;lon;timestamp;temperature;humidity
21246;DHT22;10781;50.928;4.440;2024-03-07T00:00:56;8.10;99.90
21246;DHT22;10781;50.928;4.440;2024-03-07T00:03:22;8.40;99.90
21246;DHT22;10781;50.928;4.440;2024-03-07T00:05:49;8.40;99.90
21246;DHT22;10781;50.928;4.440;2024-03-07T00:08:15;8.40;99.90
21246;DHT22;10781;50.928;4.440;2024-03-07T00:10:41;8.30;99.90
21246;DHT22;10781;50.928;4.440;2024-03-07T00:13:09;8.20;99.90
21246;DHT22;10781;50.928;4.440;2024-03-07T00:15:35;8.20;99.90
21246;DHT22;10781;50.928;4.440;2024-03-07T00:18:01;8.20;99.90
21246;DHT22;10781;50.928;4.440;2024-03-07T00:20:27;8.10;99.90
21246;DHT22;10781;50.928;4.440;2024-03-07T00:22:52;7.90;99.90
21246;DHT22;10781;50.928;4.440;2024-03-07T00:25:18;7.90;99.90
21246;DHT22;10781;50.928;4.440;2024-03-07T00:27:45;8.10;99.90
21246;DHT22;10781;50.928;4.440;2024-03-07T00:30:11;8.20;99.90
21246;DHT22;10781;50.928;4.440;2024-03-07T00:32:39;8.10;99.90
21246;DHT22;10781;50.928;4.440;2024-03-07T00:35:06;8.00;99.90
21246;DHT22;10781;50.928;4.440;2024-03-07T00:37:34;7.90;99.90
21246;DHT22;10781;50.928;4.440;2024-03-07T00:39:59;7.70;99.90
21246;DHT22;10781;50.928;4.440;2024-03-07T00:42:26;7.80;99.90
21246;DHT22;10781;50.928;4.440;2024-03-07T00:44:52;7.80;99.90
21246;DHT22;10781;50.928;4.440;2024-03-07T00:47:18;7.80;99.90
21246;DHT22;10781;50.928;4.440;2024-03-07T00:49:44;7.90;99.90
21246;DHT22;10781;50.928;4.440;2024-03-07T00:52:14;8.00;99.90
21246;DHT22;10781;50.928;4.440;2024-03-07T00:54:39;7.90;99.90
21246;DHT22;10781;50.928;4.440;2024-03-07T00:57:05;7.80;99.90
21246;DHT22;10781;50.928;4.440;2024-03-07T00:59:31;7.70;99.90
21246;DHT22;10781;50.928;4.440;2024-03-07T01:01:56;7.60;99.90
21246;DHT22;10781;50.928;4.440;2024-03-07T01:04:22;7.80;99.90
21246;DHT22;10781;50.928;4.440;2024-03-07T01:06:48;7.70;99.90
21246;DHT22;10781;50.928;4.440;2024-03-07T01:09:14;7.70;99.90
21246;DHT22;10781;50.928;4.440;2024-03-07T01:11:44;7.60;99.90
21246;DHT22;10781;50.928;4.440;2024-03-07T01:14:13;7.60;99.90
21246;DHT22;10781;50.928;4.440;2024-03-07T01:16:39;7.70;99.90
21246;DHT22;10781;50.928;4.440;2024-03-07T01:19:05;7.50;99.90
21246;DHT22;10781;50.928;4.440;2024-03-07T01:21:34;7.30;99.90
21246;DHT22;10781;50.928;4.440;2024-03-07T01:24:00;7.20;99.90
21246;DHT22;10781;50.928;4.440;2024-03-07T01:26:28;7.10;99.90
21246;DHT22;10781;50.928;4.440;2024-03-07T01:28:54;7.10;99.90
21246;DHT22;10781;50.928;4.440;2024-03-07T01:31:23;7.20;99.90
21246;DHT22;10781;50.928;4.440;2024-03-07T01:33:49;7.10;99.90
21246;DHT22;10781;50.928;4.440;2024-03-07T01:36:15;7.40;99.90
21246;DHT22;10781;50.928;4.440;2024-03-07T01:38:41;7.50;99.90
21246;DHT22;10781;50.928;4.440;2024-03-07T01:41:07;7.60;99.90
21246;DHT22;10781;50.928;4.440;2024-03-07T01:43:32;7.60;99.90
21246;DHT22;10781;50.928;4.440;2024-03-07T01:45:58;7.50;99.90
21246;DHT22;10781;50.928;4.440;2024-03-07T01:48:26;7.40;99.90
21246;DHT22;10781;50.928;4.440;2024-03-07T01:51:00;7.30;99.90
21246;DHT22;10781;50.928;4.440;2024-03-07T01:53:27;7.40;99.90
21246;DHT22;10781;50.928;4.440;2024-03-07T01:55:54;7.40;99.90
21246;DHT22;10781;50.928;4.440;2024-03-07T01:58:20;7.50;99.90
21246;DHT22;10781;50.928;4.440;2024-03-07T02:00:46;7.40;99.90
21246;DHT22;10781;50.928;4.440;2024-03-07T02:03:13;7.50;99.90
21246;DHT22;10781;50.928;4.440;2024-03-07T02:05:39;7.40;99.90
21246;DHT22;10781;50.928;4.440;2024-03-07T02:08:05;7.10;99.90
21246;DHT22;10781;50.928;4.440;2024-03-07T02:10:31;7.20;99.90
21246;DHT22;10781;50.928;4.440;2024-03-07T02:12:56;7.20;99.90
21246;DHT22;10781;50.928;4.440;2024-03-07T02:15:22;7.30;99.90
21246;DHT22;10781;50.928;4.440;2024-03-07T02:17:48;7.40;99.90
21246;DHT22;10781;50.928;4.440;2024-03-07T02:20:13;7.40;99.90
21246;DHT22;10781;50.928;4.440;2024-03-07T02:22:40;7.40;99.90
21246;DHT22;10781;50.928;4.440;2024-03-07T02:25:06;7.40;99.90
21246;DHT22;10781;50.928;4.440;2024-03-07T02:27:32;7.50;99.90
21246;DHT22;10781;50.928;4.440;2024-03-07T02:29:57;7.40;99.90
21246;DHT22;10781;50.928;4.440;2024-03-07T02:32:23;7.20;99.90
21246;DHT22;10781;50.928;4.440;2024-03-07T02:34:49;7.10;99.90
21246;DHT22;10781;50.928;4.440;2024-03-07T02:37:15;6.90;99.90
21246;DHT22;10781;50.928;4.440;2024-03-07T02:39:40;6.70;99.90
21246;DHT22;10781;50.928;4.440;2024-03-07T02:42:06;6.90;99.90
21246;DHT22;10781;50.928;4.440;2024-03-07T02:44:32;6.80;99.90
21246;DHT22;10781;50.928;4.440;2024-03-07T02:46:58;6.30;99.90
21246;DHT22;10781;50.928;4.440;2024-03-07T02:49:24;6.10;99.90
21246;DHT22;10781;50.928;4.440;2024-03-07T02:51:50;5.90;99.90
21246;DHT22;10781;50.928;4.440;2024-03-07T02:54:15;5.70;99.90
21246;DHT22;10781;50.928;4.440;2024-03-07T02:56:41;5.60;99.90
21246;DHT22;10781;50.928;4.440;2024-03-07T02:59:07;5.50;99.90
21246;DHT22;10781;50.928;4.440;2024-03-07T03:01:33;5.50;99.90
21246;DHT22;10781;50.928;4.440;2024-03-07T03:03:59;5.60;99.90
21246;DHT22;10781;50.928;4.440;2024-03-07T03:06:24;6.00;99.90
21246;DHT22;10781;50.928;4.440;2024-03-07T03:08:50;6.20;99.90
21246;DHT22;10781;50.928;4.440;2024-03-07T03:11:16;6.20;99.90
21246;DHT22;10781;50.928;4.440;2024-03-07T03:13:41;6.30;99.90
21246;DHT22;10781;50.928;4.440;2024-03-07T03:16:07;6.20;99.90
21246;DHT22;10781;50.928;4.440;2024-03-07T03:18:34;6.40;99.90
21246;DHT22;10781;50.928;4.440;2024-03-07T03:21:03;6.50;99.90
21246;DHT22;10781;50.928;4.440;2024-03-07T03:23:29;6.60;99.90
21246;DHT22;10781;50.928;4.440;2024-03-07T03:25:55;6.50;99.90
21246;DHT22;10781;50.928;4.440;2024-03-07T03:28:21;6.60;99.90
21246;DHT22;10781;50.928;4.440;2024-03-07T03:30:47;6.40;99.90
21246;DHT22;10781;50.928;4.440;2024-03-07T03:33:13;6.60;99.90
21246;DHT22;10781;50.928;4.440;2024-03-07T03:35:39;6.80;99.90
21246;DHT22;10781;50.928;4.440;2024-03-07T03:38:06;6.90;99.90
21246;DHT22;10781;50.928;4.440;2024-03-07T03:40:32;7.00;99.90
21246;DHT22;10781;50.928;4.440;2024-03-07T03:42:58;6.90;99.90
21246;DHT22;10781;50.928;4.440;2024-03-07T03:45:24;6.70;99.90
21246;DHT22;10781;50.928;4.440;2024-03-07T03:47:53;6.70;99.90
21246;DHT22;10781;50.928;4.440;2024-03-07T03:50:19;6.50;99.90
21246;DHT22;10781;50.928;4.440;2024-03-07T03:52:45;6.40;99.90
21246;DHT22;10781;50.928;4.440;2024-03-07T03:55:11;6.50;99.90
21246;DHT22;10781;50.928;4.440;2024-03-07T03:57:41;6.60;99.90
21246;DHT22;10781;50.928;4.440;2024-03-07T04:00:09;6.40;99.90
21246;DHT22;10781;50.928;4.440;2024-03-07T04:02:46;6.50;99.90
21246;DHT22;10781;50.928;4.440;2024-03-07T04:05:17;6.60;99.90
21246;DHT22;10781;50.928;4.440;2024-03-07T04:07:43;6.70;99.90
21246;DHT22;10781;50.928;4.440;2024-03-07T04:10:10;6.70;99.90
21246;DHT22;10781;50.928;4.440;2024-03-07T04:12:38;6.60;99.90
21246;DHT22;10781;50.928;4.440;2024-03-07T04:15:08;6.60;99.90
21246;DHT22;10781;50.928;4.440;2024-03-07T04:17:37;6.60;99.90
21246;DHT22;10781;50.928;4.440;2024-03-07T04:20:04;6.50;99.90
21246;DHT22;10781;50.928;4.440;2024-03-07T04:22:31;6.50;99.90
21246;DHT22;10781;50.928;4.440;2024-03-07T04:24:58;6.50;99.90
21246;DHT22;10781;50.928;4.440;2024-03-07T04:27:24;6.50;99.90
21246;DHT22;10781;50.928;4.440;2024-03-07T04:29:51;6.60;99.90
21246;DHT22;10781;50.928;4.440;2024-03-07T04:32:17;6.40;99.90
21246;DHT22;10781;50.928;4.440;2024-03-07T04:34:43;6.30;99.90
21246;DHT22;10781;50.928;4.440;2024-03-07T04:37:09;6.30;99.90
21246;DHT22;10781;50.928;4.440;2024-03-07T04:39:35;6.30;99.90
21246;DHT22;10781;50.928;4.440;2024-03-07T04:42:05;6.30;99.90
21246;DHT22;10781;50.928;4.440;2024-03-07T04:44:36;6.40;99.90
21246;DHT22;10781;50.928;4.440;2024-03-07T04:47:03;6.50;99.90
21246;DHT22;10781;50.928;4.440;2024-03-07T04:49:30;6.60;99.90
21246;DHT22;10781;50.928;4.440;2024-03-07T04:52:01;6.60;99.90
21246;DHT22;10781;50.928;4.440;2024-03-07T04:54:29;6.60;99.90
21246;DHT22;10781;50.928;4.440;2024-03-07T04:56:55;6.50;99.90
21246;DHT22;10781;50.928;4.440;2024-03-07T04:59:21;6.40;99.90
21246;DHT22;10781;50.928;4.440;2024-03-07T05:01:48;6.20;99.90
21246;DHT22;10781;50.928;4.440;2024-03-07T05:04:16;6.00;99.90
21246;DHT22;10781;50.928;4.440;2024-03-07T05:06:42;6.10;99.90
21246;DHT22;10781;50.928;4.440;2024-03-07T05:09:09;6.00;99.90
21246;DHT22;10781;50.928;4.440;2024-03-07T05:11:39;6.10;99.90
21246;DHT22;10781;50.928;4.440;2024-03-07T05:14:05;6.10;99.90
21246;DHT22;10781;50.928;4.440;2024-03-07T05:16:31;6.20;99.90
21246;DHT22;10781;50.928;4.440;2024-03-07T05:18:57;6.30;99.90
21246;DHT22;10781;50.928;4.440;2024-03-07T05:21:26;6.30;99.90
21246;DHT22;10781;50.928;4.440;2024-03-07T05:24:01;6.30;99.90
21246;DHT22;10781;50.928;4.440;2024-03-07T05:26:28;6.20;99.90
21246;DHT22;10781;50.928;4.440;2024-03-07T05:29:00;6.10;99.90
21246;DHT22;10781;50.928;4.440;2024-03-07T05:31:28;6.20;99.90
21246;DHT22;10781;50.928;4.440;2024-03-07T05:33:54;6.30;99.90
21246;DHT22;10781;50.928;4.440;2024-03-07T05:36:19;6.20;99.90
21246;DHT22;10781;50.928;4.440;2024-03-07T05:38:45;6.50;99.90
21246;DHT22;10781;50.928;4.440;2024-03-07T05:41:11;6.70;99.90
21246;DHT22;10781;50.928;4.440;2024-03-07T05:43:40;6.90;99.90
21246;DHT22;10781;50.928;4.440;2024-03-07T05:46:06;7.10;99.90
21246;DHT22;10781;50.928;4.440;2024-03-07T05:48:36;7.10;99.90
21246;DHT22;10781;50.928;4.440;2024-03-07T05:51:02;7.10;99.90
21246;DHT22;10781;50.928;4.440;2024-03-07T05:53:28;7.20;99.90
21246;DHT22;10781;50.928;4.440;2024-03-07T05:55:54;7.30;99.90
21246;DHT22;10781;50.928;4.440;2024-03-07T05:58:20;7.40;99.90
21246;DHT22;10781;50.928;4.440;2024-03-07T06:00:49;7.00;99.90
21246;DHT22;10781;50.928;4.440;2024-03-07T06:03:19;6.90;99.90
21246;DHT22;10781;50.928;4.440;2024-03-07T06:05:49;6.90;99.90
21246;DHT22;10781;50.928;4.440;2024-03-07T06:08:16;6.90;99.90
21246;DHT22;10781;50.928;4.440;2024-03-07T06:10:43;6.80;99.90
21246;DHT22;10781;50.928;4.440;2024-03-07T06:13:10;6.60;99.90
21246;DHT22;10781;50.928;4.440;2024-03-07T06:15:39;6.80;99.90
21246;DHT22;10781;50.928;4.440;2024-03-07T06:18:06;7.10;99.90
21246;DHT22;10781;50.928;4.440;2024-03-07T06:20:34;7.20;99.90
21246;DHT22;10781;50.928;4.440;2024-03-07T06:23:01;6.90;99.90
21246;DHT22;10781;50.928;4.440;2024-03-07T06:25:36;6.70;99.90
21246;DHT22;10781;50.928;4.440;2024-03-07T06:28:06;6.60;99.90
21246;DHT22;10781;50.928;4.440;2024-03-07T06:30:39;6.60;99.90
21246;DHT22;10781;50.928;4.440;2024-03-07T06:33:05;6.30;99.90
21246;DHT22;10781;50.928;4.440;2024-03-07T06:35:32;6.20;99.90
21246;DHT22;10781;50.928;4.440;2024-03-07T06:37:57;6.10;99.90
21246;DHT22;10781;50.928;4.440;2024-03-07T06:40:23;6.10;99.90
21246;DHT22;10781;50.928;4.440;2024-03-07T06:42:49;6.20;99.90
21246;DHT22;10781;50.928;4.440;2024-03-07T06:45:16;6.40;99.90
21246;DHT22;10781;50.928;4.440;2024-03-07T06:47:41;6.50;99.90
21246;DHT22;10781;50.928;4.440;2024-03-07T06:50:07;6.40;99.90
21246;DHT22;10781;50.928;4.440;2024-03-07T06:52:35;6.40;99.90
21246;DHT22;10781;50.928;4.440;2024-03-07T06:55:04;6.50;99.90
21246;DHT22;10781;50.928;4.440;2024-03-07T06:57:32;6.40;99.90
21246;DHT22;10781;50.928;4.440;2024-03-07T06:59:59;6.30;99.90
21246;DHT22;10781;50.928;4.440;2024-03-07T07:02:25;6.30;99.90
21246;DHT22;10781;50.928;4.440;2024-03-07T07:04:53;6.40;99.90
21246;DHT22;10781;50.928;4.440;2024-03-07T07:07:19;6.40;99.90
21246;DHT22;10781;50.928;4.440;2024-03-07T07:09:45;6.30;99.90
21246;DHT22;10781;50.928;4.440;2024-03-07T07:12:11;6.40;99.90
21246;DHT22;10781;50.928;4.440;2024-03-07T07:14:37;6.60;99.90
21246;DHT22;10781;50.928;4.440;2024-03-07T07:17:04;6.70;99.90
21246;DHT22;10781;50.928;4.440;2024-03-07T07:19:30;6.80;99.90
21246;DHT22;10781;50.928;4.440;2024-03-07T07:21:56;6.70;99.90
21246;DHT22;10781;50.928;4.440;2024-03-07T07:24:22;6.70;99.90
21246;DHT22;10781;50.928;4.440;2024-03-07T07:26:49;6.80;99.90
21246;DHT22;10781;50.928;4.440;2024-03-07T07:29:15;6.90;99.90
21246;DHT22;10781;50.928;4.440;2024-03-07T07:31:41;7.00;99.90
21246;DHT22;10781;50.928;4.440;2024-03-07T07:34:07;7.10;99.90
21246;DHT22;10781;50.928;4.440;2024-03-07T07:36:33;7.20;99.90
21246;DHT22;10781;50.928;4.440;2024-03-07T07:38:58;7.30;99.90
21246;DHT22;10781;50.928;4.440;2024-03-07T07:41:24;7.30;99.90
21246;DHT22;10781;50.928;4.440;2024-03-07T07:43:50;7.30;99.90
21246;DHT22;10781;50.928;4.440;2024-03-07T07:46:17;7.20;99.90
21246;DHT22;10781;50.928;4.440;2024-03-07T07:48:43;7.10;99.90
21246;DHT22;10781;50.928;4.440;2024-03-07T07:51:09;7.00;99.90
21246;DHT22;10781;50.928;4.440;2024-03-07T07:53:35;6.90;99.90
21246;DHT22;10781;50.928;4.440;2024-03-07T07:56:01;6.80;99.90
21246;DHT22;10781;50.928;4.440;2024-03-07T07:58:26;6.90;99.90
21246;DHT22;10781;50.928;4.440;2024-03-07T08:00:53;7.00;99.90
21246;DHT22;10781;50.928;4.440;2024-03-07T08:03:18;6.90;99.90
21246;DHT22;10781;50.928;4.440;2024-03-07T08:05:45;7.00;99.90
21246;DHT22;10781;50.928;4.440;2024-03-07T08:08:11;7.10;99.90
21246;DHT22;10781;50.928;4.440;2024-03-07T08:10:39;7.20;99.90
21246;DHT22;10781;50.928;4.440;2024-03-07T08:13:06;7.20;99.90
21246;DHT22;10781;50.928;4.440;2024-03-07T08:15:33;7.00;99.90
21246;DHT22;10781;50.928;4.440;2024-03-07T08:18:00;7.00;99.90
21246;DHT22;10781;50.928;4.440;2024-03-07T08:20:26;7.20;99.90
21246;DHT22;10781;50.928;4.440;2024-03-07T08:22:53;7.10;99.90
21246;DHT22;10781;50.928;4.440;2024-03-07T08:25:25;7.00;99.90
21246;DHT22;10781;50.928;4.440;2024-03-07T08:27:52;7.20;99.90
21246;DHT22;10781;50.928;4.440;2024-03-07T08:30:19;7.10;99.90
21246;DHT22;10781;50.928;4.440;2024-03-07T08:32:47;7.20;99.90
21246;DHT22;10781;50.928;4.440;2024-03-07T08:35:13;7.30;99.90
21246;DHT22;10781;50.928;4.440;2024-03-07T08:37:39;7.60;99.90
21246;DHT22;10781;50.928;4.440;2024-03-07T08:40:06;7.80;99.90
21246;DHT22;10781;50.928;4.440;2024-03-07T08:42:34;7.80;99.90
21246;DHT22;10781;50.928;4.440;2024-03-07T08:45:04;7.70;99.90
21246;DHT22;10781;50.928;4.440;2024-03-07T08:47:34;7.60;99.90
21246;DHT22;10781;50.928;4.440;2024-03-07T08:50:00;7.60;99.90
21246;DHT22;10781;50.928;4.440;2024-03-07T08:52:27;7.90;99.90
21246;DHT22;10781;50.928;4.440;2024-03-07T08:54:53;8.20;99.90
21246;DHT22;10781;50.928;4.440;2024-03-07T08:57:20;8.60;99.90
21246;DHT22;10781;50.928;4.440;2024-03-07T08:59:47;9.00;99.90
21246;DHT22;10781;50.928;4.440;2024-03-07T09:02:13;8.90;99.90
21246;DHT22;10781;50.928;4.440;2024-03-07T09:04:39;8.70;99.90
21246;DHT22;10781;50.928;4.440;2024-03-07T09:07:06;8.50;99.90
21246;DHT22;10781;50.928;4.440;2024-03-07T09:09:32;8.70;99.90
21246;DHT22;10781;50.928;4.440;2024-03-07T09:11:57;8.50;99.90
21246;DHT22;10781;50.928;4.440;2024-03-07T09:14:23;8.50;99.90
21246;DHT22;10781;50.928;4.440;2024-03-07T09:16:49;8.70;99.90
21246;DHT22;10781;50.928;4.440;2024-03-07T09:19:15;8.90;99.90
21246;DHT22;10781;50.928;4.440;2024-03-07T09:21:46;9.10;99.90
21246;DHT22;10781;50.928;4.440;2024-03-07T09:24:12;9.60;99.90
21246;DHT22;10781;50.928;4.440;2024-03-07T09:26:38;9.60;99.90
21246;DHT22;10781;50.928;4.440;2024-03-07T09:29:04;10.10;99.90
21246;DHT22;10781;50.928;4.440;2024-03-07T09:31:34;9.90;99.90
21246;DHT22;10781;50.928;4.440;2024-03-07T09:34:00;10.10;99.90
21246;DHT22;10781;50.928;4.440;2024-03-07T09:36:26;10.30;99.90
21246;DHT22;10781;50.928;4.440;2024-03-07T09:38:52;10.40;99.90
21246;DHT22;10781;50.928;4.440;2024-03-07T09:41:19;11.20;99.90
21246;DHT22;10781;50.928;4.440;2024-03-07T09:43:52;12.20;99.90
21246;DHT22;10781;50.928;4.440;2024-03-07T09:46:24;12.10;99.90
21246;DHT22;10781;50.928;4.440;2024-03-07T09:48:50;14.00;99.90
21246;DHT22;10781;50.928;4.440;2024-03-07T09:51:19;14.00;99.90
21246;DHT22;10781;50.928;4.440;2024-03-07T09:53:48;14.70;99.90
21246;DHT22;10781;50.928;4.440;2024-03-07T09:56:17;14.90;99.90
21246;DHT22;10781;50.928;4.440;2024-03-07T09:58:48;16.20;99.90
21246;DHT22;10781;50.928;4.440;2024-03-07T10:01:15;17.30;99.90
21246;DHT22;10781;50.928;4.440;2024-03-07T10:03:43;17.80;99.90
21246;DHT22;10781;50.928;4.440;2024-03-07T10:06:10;19.30;99.90
21246;DHT22;10781;50.928;4.440;2024-03-07T10:08:36;20.80;99.90
21246;DHT22;10781;50.928;4.440;2024-03-07T10:11:02;22.00;99.90
21246;DHT22;10781;50.928;4.440;2024-03-07T10:13:28;22.50;99.90
21246;DHT22;10781;50.928;4.440;2024-03-07T10:15:56;20.60;99.90
21246;DHT22;10781;50.928;4.440;2024-03-07T10:18:25;19.10;99.90
21246;DHT22;10781;50.928;4.440;2024-03-07T10:20:56;19.50;99.90
21246;DHT22;10781;50.928;4.440;2024-03-07T10:23:22;20.90;99.90
21246;DHT22;10781;50.928;4.440;2024-03-07T10:25:49;20.70;99.90
21246;DHT22;10781;50.928;4.440;2024-03-07T10:28:19;20.80;99.90
21246;DHT22;10781;50.928;4.440;2024-03-07T10:30:46;21.50;99.90
21246;DHT22;10781;50.928;4.440;2024-03-07T10:33:13;22.40;99.90
21246;DHT22;10781;50.928;4.440;2024-03-07T10:35:39;23.30;98.70
21246;DHT22;10781;50.928;4.440;2024-03-07T10:38:04;22.80;97.60
21246;DHT22;10781;50.928;4.440;2024-03-07T10:40:37;22.90;98.50
21246;DHT22;10781;50.928;4.440;2024-03-07T10:43:11;24.40;96.10
21246;DHT22;10781;50.928;4.440;2024-03-07T10:45:50;23.70;94.10
21246;DHT22;10781;50.928;4.440;2024-03-07T10:48:25;22.80;92.20
21246;DHT22;10781;50.928;4.440;2024-03-07T10:59:44;22.80;92.70
21246;DHT22;10781;50.928;4.440;2024-03-07T11:04:53;26.60;87.20
21246;DHT22;10781;50.928;4.440;2024-03-07T11:07:23;26.00;84.40
21246;DHT22;10781;50.928;4.440;2024-03-07T11:09:49;25.50;82.20
21246;DHT22;10781;50.928;4.440;2024-03-07T11:12:19;23.50;84.60
21246;DHT22;10781;50.928;4.440;2024-03-07T11:14:47;22.40;88.40
21246;DHT22;10781;50.928;4.440;2024-03-07T11:17:15;23.30;89.60
21246;DHT22;10781;50.928;4.440;2024-03-07T11:19:41;23.10;87.70
21246;DHT22;10781;50.928;4.440;2024-03-07T11:22:08;23.40;87.90
21246;DHT22;10781;50.928;4.440;2024-03-07T11:24:43;24.60;83.90
21246;DHT22;10781;50.928;4.440;2024-03-07T11:27:09;25.50;79.50
21246;DHT22;10781;50.928;4.440;2024-03-07T11:29:42;23.30;80.60
21246;DHT22;10781;50.928;4.440;2024-03-07T11:32:13;20.50;89.40
21246;DHT22;10781;50.928;4.440;2024-03-07T11:34:42;20.00;90.90
21246;DHT22;10781;50.928;4.440;2024-03-07T11:37:19;19.10;91.40
21246;DHT22;10781;50.928;4.440;2024-03-07T11:39:49;19.20;91.90
21246;DHT22;10781;50.928;4.440;2024-03-07T11:42:30;20.50;92.10
21246;DHT22;10781;50.928;4.440;2024-03-07T11:44:59;20.90;90.30
21246;DHT22;10781;50.928;4.440;2024-03-07T11:47:36;21.30;89.90
21246;DHT22;10781;50.928;4.440;2024-03-07T11:50:06;19.40;91.20
21246;DHT22;10781;50.928;4.440;2024-03-07T11:52:38;18.50;92.20
21246;DHT22;10781;50.928;4.440;2024-03-07T11:55:08;19.20;93.60
21246;DHT22;10781;50.928;4.440;2024-03-07T11:57:34;21.70;91.90
21246;DHT22;10781;50.928;4.440;2024-03-07T12:00:00;22.60;90.20
21246;DHT22;10781;50.928;4.440;2024-03-07T12:02:37;21.80;90.80
21246;DHT22;10781;50.928;4.440;2024-03-07T12:05:04;22.60;88.60
21246;DHT22;10781;50.928;4.440;2024-03-07T12:07:31;22.20;89.50
21246;DHT22;10781;50.928;4.440;2024-03-07T12:09:57;20.50;90.50
21246;DHT22;10781;50.928;4.440;2024-03-07T12:12:23;19.70;91.50
21246;DHT22;10781;50.928;4.440;2024-03-07T12:14:50;18.40;93.00
21246;DHT22;10781;50.928;4.440;2024-03-07T12:17:19;17.40;94.90
21246;DHT22;10781;50.928;4.440;2024-03-07T12:19:45;16.40;97.10
21246;DHT22;10781;50.928;4.440;2024-03-07T12:22:13;15.80;99.50
21246;DHT22;10781;50.928;4.440;2024-03-07T12:24:39;15.40;99.90
21246;DHT22;10781;50.928;4.440;2024-03-07T12:27:12;15.30;99.90
21246;DHT22;10781;50.928;4.440;2024-03-07T12:29:42;14.90;99.90
21246;DHT22;10781;50.928;4.440;2024-03-07T12:32:11;14.80;99.90
21246;DHT22;10781;50.928;4.440;2024-03-07T12:34:39;14.80;99.90
21246;DHT22;10781;50.928;4.440;2024-03-07T12:37:09;14.70;99.90
21246;DHT22;10781;50.928;4.440;2024-03-07T12:39:35;14.80;99.90
21246;DHT22;10781;50.928;4.440;2024-03-07T12:42:04;14.80;99.90
21246;DHT22;10781;50.928;4.440;2024-03-07T12:44:46;14.90;99.90
21246;DHT22;10781;50.928;4.440;2024-03-07T12:47:16;14.70;99.90
21246;DHT22;10781;50.928;4.440;2024-03-07T12:49:42;14.10;99.90
21246;DHT22;10781;50.928;4.440;2024-03-07T12:52:08;14.10;99.90
21246;DHT22;10781;50.928;4.440;2024-03-07T12:54:37;14.90;99.90
21246;DHT22;10781;50.928;4.440;2024-03-07T12:57:11;16.60;99.90
21246;DHT22;10781;50.928;4.440;2024-03-07T12:59:41;18.60;99.90
21246;DHT22;10781;50.928;4.440;2024-03-07T13:02:10;18.50;99.10
21246;DHT22;10781;50.928;4.440;2024-03-07T13:04:37;17.90;99.10
21246;DHT22;10781;50.928;4.440;2024-03-07T13:07:06;17.00;99.90
21246;DHT22;10781;50.928;4.440;2024-03-07T13:09:35;16.30;99.90
21246;DHT22;10781;50.928;4.440;2024-03-07T13:12:03;15.80;99.90
21246;DHT22;10781;50.928;4.440;2024-03-07T13:14:32;15.80;99.90
21246;DHT22;10781;50.928;4.440;2024-03-07T13:16:59;15.90;99.90
21246;DHT22;10781;50.928;4.440;2024-03-07T13:19:26;15.70;99.90
21246;DHT22;10781;50.928;4.440;2024-03-07T13:21:52;15.80;99.90
21246;DHT22;10781;50.928;4.440;2024-03-07T13:24:19;15.60;99.90
21246;DHT22;10781;50.928;4.440;2024-03-07T13:26:46;15.00;99.90
21246;DHT22;10781;50.928;4.440;2024-03-07T13:29:14;14.50;99.90
21246;DHT22;10781;50.928;4.440;2024-03-07T13:31:42;13.90;99.90
21246;DHT22;10781;50.928;4.440;2024-03-07T13:34:11;14.20;99.90
21246;DHT22;10781;50.928;4.440;2024-03-07T13:36:42;14.90;99.90
21246;DHT22;10781;50.928;4.440;2024-03-07T13:39:12;16.00;99.90
21246;DHT22;10781;50.928;4.440;2024-03-07T13:41:40;15.60;99.90
21246;DHT22;10781;50.928;4.440;2024-03-07T13:44:06;15.40;99.90
21246;DHT22;10781;50.928;4.440;2024-03-07T13:46:32;16.60;99.90
21246;DHT22;10781;50.928;4.440;2024-03-07T13:49:02;17.80;99.90
21246;DHT22;10781;50.928;4.440;2024-03-07T13:51:42;18.20;98.30
21246;DHT22;10781;50.928;4.440;2024-03-07T13:54:19;18.10;96.20
21246;DHT22;10781;50.928;4.440;2024-03-07T14:02:29;16.40;98.20
21246;DHT22;10781;50.928;4.440;2024-03-07T14:05:42;16.70;98.20
21246;DHT22;10781;50.928;4.440;2024-03-07T14:17:42;18.70;92.00
21246;DHT22;10781;50.928;4.440;2024-03-07T14:20:47;17.80;93.40
21246;DHT22;10781;50.928;4.440;2024-03-07T14:23:41;16.90;93.50
21246;DHT22;10781;50.928;4.440;2024-03-07T14:31:45;18.10;92.60
21246;DHT22;10781;50.928;4.440;2024-03-07T14:34:55;17.50;93.90
21246;DHT22;10781;50.928;4.440;2024-03-07T14:37:32;17.50;93.60
21246;DHT22;10781;50.928;4.440;2024-03-07T14:40:09;17.70;93.60
21246;DHT22;10781;50.928;4.440;2024-03-07T14:42:44;18.20;93.20
21246;DHT22;10781;50.928;4.440;2024-03-07T14:45:19;18.60;91.30
21246;DHT22;10781;50.928;4.440;2024-03-07T14:47:48;19.00;91.20
21246;DHT22;10781;50.928;4.440;2024-03-07T14:50:15;19.30;88.60
21246;DHT22;10781;50.928;4.440;2024-03-07T14:52:42;19.60;86.80
21246;DHT22;10781;50.928;4.440;2024-03-07T14:55:10;18.10;89.70
21246;DHT22;10781;50.928;4.440;2024-03-07T14:57:40;18.50;90.00
21246;DHT22;10781;50.928;4.440;2024-03-07T15:00:11;18.70;88.90
21246;DHT22;10781;50.928;4.440;2024-03-07T15:02:48;19.10;89.00
21246;DHT22;10781;50.928;4.440;2024-03-07T15:05:17;19.90;87.30
21246;DHT22;10781;50.928;4.440;2024-03-07T15:07:45;20.60;85.60
21246;DHT22;10781;50.928;4.440;2024-03-07T15:10:19;20.20;85.40
21246;DHT22;10781;50.928;4.440;2024-03-07T15:12:49;20.40;86.30
21246;DHT22;10781;50.928;4.440;2024-03-07T15:15:16;19.80;86.00
21246;DHT22;10781;50.928;4.440;2024-03-07T15:17:44;19.60;85.90
21246;DHT22;10781;50.928;4.440;2024-03-07T15:20:11;19.20;87.00
21246;DHT22;10781;50.928;4.440;2024-03-07T15:22:56;18.90;86.50
21246;DHT22;10781;50.928;4.440;2024-03-07T15:25:23;18.20;87.80
21246;DHT22;10781;50.928;4.440;2024-03-07T15:27:50;17.80;89.00
21246;DHT22;10781;50.928;4.440;2024-03-07T15:30:19;17.90;88.20
21246;DHT22;10781;50.928;4.440;2024-03-07T15:32:46;17.30;88.40
21246;DHT22;10781;50.928;4.440;2024-03-07T15:35:13;18.00;90.60
21246;DHT22;10781;50.928;4.440;2024-03-07T15:37:44;18.60;88.30
21246;DHT22;10781;50.928;4.440;2024-03-07T15:40:11;17.70;88.20
21246;DHT22;10781;50.928;4.440;2024-03-07T15:42:44;17.50;88.90
21246;DHT22;10781;50.928;4.440;2024-03-07T15:45:16;17.30;90.00
21246;DHT22;10781;50.928;4.440;2024-03-07T15:47:46;17.60;88.20
21246;DHT22;10781;50.928;4.440;2024-03-07T15:50:13;17.80;89.00
21246;DHT22;10781;50.928;4.440;2024-03-07T15:52:42;17.40;87.30
21246;DHT22;10781;50.928;4.440;2024-03-07T15:55:09;17.00;88.60
21246;DHT22;10781;50.928;4.440;2024-03-07T15:57:47;17.10;89.50
21246;DHT22;10781;50.928;4.440;2024-03-07T16:00:20;16.20;89.80
21246;DHT22;10781;50.928;4.440;2024-03-07T16:02:58;16.10;91.10
21246;DHT22;10781;50.928;4.440;2024-03-07T16:05:25;16.10;91.10
21246;DHT22;10781;50.928;4.440;2024-03-07T16:07:52;16.60;91.10
21246;DHT22;10781;50.928;4.440;2024-03-07T16:10:22;16.20;91.00
21246;DHT22;10781;50.928;4.440;2024-03-07T16:12:53;16.30;92.30
21246;DHT22;10781;50.928;4.440;2024-03-07T16:15:22;15.90;91.20
21246;DHT22;10781;50.928;4.440;2024-03-07T16:17:51;15.90;92.00